DMAD Reservoir




Date Reservoir Capacity (AF) Hourly Avg. Stream Stage (ft) Reservoir Outflow (cfs) Reservoir Gate 1 Height (ft) Reservoir Gate 2 Height (ft) Reservoir Gate 3 Height (ft) Stream Flow (cfs) Stream Conductivity (ppm) Battery Voltage (V) Reservoir Height (ft) Canal Flow (cfs) Canal Height (ft) Canal Flow 2 (ft)
03/01/2018 3,452 0 0.00 0.00 0.00 0.00 0.00 12.99 57.84 0.00 0.00
03/02/2018 3,452 0 0.00 0.00 0.00 0.00 0.00 13.36 57.84 0.00 0.00
03/03/2018 3,446 0 0.00 0.00 0.00 0.00 0.00 13.21 57.83 0.00 0.00
03/04/2018 3,446 0 0.00 0.00 0.00 0.00 0.00 13.23 57.83 0.00 0.00
03/05/2018 3,518 0 0.00 0.00 0.00 0.00 0.00 13.47 57.95 0.00 0.00
03/06/2018 3,524 0 0.00 0.00 0.00 0.00 0.00 13.45 57.96 0.00 0.00
03/07/2018 3,542 0 0.00 0.00 0.00 0.00 0.00 13.42 57.99 0.00 0.00
03/08/2018 3,621 0 0.00 0.00 0.00 0.00 0.00 13.44 58.00 0.00 0.00
03/09/2018 3,621 0 0.00 0.00 0.00 0.00 0.00 13.35 58.00 0.00 0.00
03/10/2018 3,555 0 0.00 0.00 0.00 0.00 0.00 13.37 58.01 0.00 0.00
03/12/2018 3,563 0 0.00 0.00 0.00 0.00 0.00 13.33 58.02 0.00 0.00
03/13/2018 3,578 0 0.00 0.00 0.00 0.00 0.00 13.32 58.04 0.00 0.00
03/14/2018 3,585 0 0.00 0.00 0.00 0.00 0.00 13.01 58.05 0.00 0.00
03/15/2018 3,585 0 0.00 0.00 0.00 0.00 0.00 13.13 58.05 0.00 0.00
03/16/2018 3,585 0 0.00 0.00 0.00 0.00 0.00 13.44 58.05 0.00 0.00
03/17/2018 3,585 0 0.00 0.00 0.00 0.00 0.00 12.85 58.05 0.00 0.00
03/18/2018 3,659 0 0.00 0.00 0.00 0.00 0.00 13.20 58.15 0.00 0.00
03/19/2018 3,667 0 0.00 0.00 0.00 0.00 0.00 13.49 58.16 0.00 0.00
03/20/2018 3,667 0 0.00 0.00 0.00 0.00 0.00 13.45 58.16 0.00 0.00
03/21/2018 3,600 0 0.00 0.00 0.00 0.00 0.00 13.34 58.07 0.00 0.00
03/22/2018 3,585 0 0.00 0.00 0.00 0.00 0.00 12.92 58.05 0.00 0.00
03/23/2018 3,578 0 0.00 0.00 0.00 0.00 0.00 13.35 58.04 0.00 0.00
03/24/2018 3,578 0 0.00 0.00 0.00 0.00 0.00 13.35 58.04 0.00 0.00
03/25/2018 3,555 0 0.00 0.00 0.00 0.00 0.00 13.38 58.01 0.00 0.00
03/26/2018 3,621 0 0.00 0.00 0.00 0.00 0.00 13.49 58.00 0.00 0.00
03/27/2018 3,621 0 0.00 0.00 0.00 0.00 0.00 13.52 58.00 0.00 0.00
03/28/2018 3,621 0 0.00 0.00 0.00 0.00 0.00 13.46 58.00 0.00 0.00
03/29/2018 3,542 0 0.00 0.00 0.00 0.00 0.00 13.47 57.99 0.00 0.00
03/30/2018 3,536 0 0.00 0.00 0.00 0.00 0.00 13.47 57.98 0.00 0.00
03/31/2018 3,524 0 0.00 0.00 0.00 0.00 0.00 13.43 57.96 0.00 0.00
Average 0 0.00 0.00
Maximum 0 0.00 0.00
Minimum 0 0.00 0.00
Total Volume (AF) 0 0.00 0.00